Time;durP1;ratioP1;P1;durP2;ratioP2;P2;SDS_P1;SDS_P2;PMS_P1;PMS_P2;Temp;Humidity;BMP_temperature;BMP_pressure;BME280_temperature;BME280_humidity;BME280_pressure;Samples;Min_cycle;Max_cycle;Signal;HPM_P1;HPM_P2
2022/04/18 00:00:18;;;;;;;0.80;0.70;;;;;;;;;;5100416;28;20198;-73
2022/04/18 00:02:45;;;;;;;1.30;0.80;;;;;;;;;;5097315;28;20494;-73
2022/04/18 00:05:12;;;;;;;2.43;1.47;;;;;;;;;;5110970;28;20442;-73
2022/04/18 00:07:39;;;;;;;1.77;1.23;;;;;;;;;;5095990;28;20482;-73
2022/04/18 00:10:09;;;;;;;2.00;1.20;;;;;;;;;;5100040;28;20454;-73
2022/04/18 00:12:36;;;;;;;0.97;0.87;;;;;;;;;;5097646;28;20509;-73
2022/04/18 00:15:03;;;;;;;1.27;1.20;;;;;;;;;;5100131;28;20458;-73
2022/04/18 00:17:30;;;;;;;1.95;1.13;;;;;;;;;;5107211;28;20530;-73
2022/04/18 00:19:57;;;;;;;1.03;0.93;;;;;;;;;;5103221;28;20202;-73
2022/04/18 00:22:24;;;;;;;2.00;0.93;;;;;;;;;;5103868;28;20891;-73
2022/04/18 00:24:52;;;;;;;1.20;1.10;;;;;;;;;;5101842;28;20444;-73
2022/04/18 00:27:20;;;;;;;1.63;1.37;;;;;;;;;;5093281;28;20534;-73
2022/04/18 00:29:49;;;;;;;0.82;0.82;;;;;;;;;;5098750;28;20449;-73
2022/04/18 00:32:16;;;;;;;1.10;1.00;;;;;;;;;;5106237;28;20546;-73
2022/04/18 00:34:43;;;;;;;0.87;0.80;;;;;;;;;;5096330;28;20534;-73
2022/04/18 00:37:10;;;;;;;0.90;0.80;;;;;;;;;;5095230;28;20443;-74
2022/04/18 00:39:38;;;;;;;1.87;1.77;;;;;;;;;;5101527;28;20499;-73
2022/04/18 00:42:06;;;;;;;2.17;1.37;;;;;;;;;;5103568;28;20456;-72
2022/04/18 00:44:34;;;;;;;1.00;0.90;;;;;;;;;;5107836;28;20504;-73
2022/04/18 00:47:01;;;;;;;1.42;1.27;;;;;;;;;;5107825;28;20448;-72
2022/04/18 00:49:29;;;;;;;1.00;0.80;;;;;;;;;;5100049;28;20306;-72
2022/04/18 00:51:57;;;;;;;0.80;0.80;;;;;;;;;;5106588;28;20893;-72
2022/04/18 00:54:24;;;;;;;0.90;0.70;;;;;;;;;;5107023;28;20526;-72
2022/04/18 00:56:53;;;;;;;2.30;0.90;;;;;;;;;;5099979;28;20525;-72
2022/04/18 00:59:21;;;;;;;1.23;1.13;;;;;;;;;;5107110;28;20481;-72
2022/04/18 01:01:50;;;;;;;2.40;1.17;;;;;;;;;;5102623;28;20199;-72
2022/04/18 01:04:17;;;;;;;1.55;1.00;;;;;;;;;;5109874;28;20437;-72
2022/04/18 01:06:45;;;;;;;1.93;1.67;;;;;;;;;;5097188;28;20197;-72
2022/04/18 01:09:12;;;;;;;1.30;1.20;;;;;;;;;;5106461;28;20529;-72
2022/04/18 01:11:40;;;;;;;0.93;0.93;;;;;;;;;;5104329;28;20445;-72
2022/04/18 01:14:07;;;;;;;1.07;0.80;;;;;;;;;;5097399;28;20446;-72
2022/04/18 01:16:34;;;;;;;1.23;1.00;;;;;;;;;;5105082;28;20509;-72
2022/04/18 01:19:03;;;;;;;1.43;1.33;;;;;;;;;;5098061;28;20475;-72
2022/04/18 01:21:31;;;;;;;2.17;1.15;;;;;;;;;;5102393;28;20562;-72
2022/04/18 01:23:59;;;;;;;1.10;1.00;;;;;;;;;;5107598;28;20206;-73
2022/04/18 01:29:11;;;;;;;1.13;1.00;;;;;;;;;;5100655;28;20280;-72
2022/04/18 01:31:39;;;;;;;0.90;0.87;;;;;;;;;;5099262;28;20468;-72
2022/04/18 01:34:07;;;;;;;0.60;0.60;;;;;;;;;;5106062;28;20503;-72
2022/04/18 01:36:36;;;;;;;1.23;1.23;;;;;;;;;;5095561;28;20455;-72
2022/04/18 01:39:03;;;;;;;1.03;0.90;;;;;;;;;;5093767;28;20567;-72
2022/04/18 01:41:30;;;;;;;1.10;0.80;;;;;;;;;;5105938;28;20544;-72
2022/04/18 01:43:58;;;;;;;0.67;0.67;;;;;;;;;;5101307;28;20534;-72
2022/04/18 01:46:25;;;;;;;0.60;0.50;;;;;;;;;;5108580;28;20455;-72
2022/04/18 01:48:53;;;;;;;0.93;0.80;;;;;;;;;;5101339;28;20452;-72
2022/04/18 01:51:20;;;;;;;2.40;1.90;;;;;;;;;;5107124;28;20450;-70
2022/04/18 01:53:49;;;;;;;1.00;0.90;;;;;;;;;;5102675;28;20958;-72
2022/04/18 01:56:16;;;;;;;1.67;1.40;;;;;;;;;;5105816;28;20847;-72
2022/04/18 01:58:43;;;;;;;1.10;0.57;;;;;;;;;;5103356;28;20472;-71
2022/04/18 02:01:11;;;;;;;1.20;1.10;;;;;;;;;;5105476;28;20538;-71
2022/04/18 02:03:41;;;;;;;1.63;1.20;;;;;;;;;;5103547;28;20478;-72
2022/04/18 02:06:08;;;;;;;1.17;1.00;;;;;;;;;;5097486;28;20458;-71
2022/04/18 02:08:36;;;;;;;1.20;0.70;;;;;;;;;;5104127;28;20445;-72
2022/04/18 02:11:05;;;;;;;1.77;1.07;;;;;;;;;;5099765;28;20451;-71
2022/04/18 02:13:32;;;;;;;1.70;1.60;;;;;;;;;;5111401;28;20451;-72
2022/04/18 02:15:59;;;;;;;0.90;0.90;;;;;;;;;;5099623;28;20498;-71
2022/04/18 02:18:27;;;;;;;1.07;0.97;;;;;;;;;;5099221;28;20806;-72
2022/04/18 02:20:54;;;;;;;2.73;1.90;;;;;;;;;;5105418;28;20453;-72
2022/04/18 02:23:21;;;;;;;1.30;1.10;;;;;;;;;;5100329;28;20863;-72
2022/04/18 02:25:48;;;;;;;2.17;1.97;;;;;;;;;;5099745;28;20475;-71
2022/04/18 02:28:17;;;;;;;0.63;0.63;;;;;;;;;;5109995;28;20960;-72
2022/04/18 02:30:44;;;;;;;0.87;0.87;;;;;;;;;;5099698;28;20446;-72
2022/04/18 02:33:11;;;;;;;0.70;0.70;;;;;;;;;;5097278;28;20543;-71
2022/04/18 02:35:39;;;;;;;1.00;0.90;;;;;;;;;;5099848;28;20449;-72
2022/04/18 02:38:06;;;;;;;0.90;0.90;;;;;;;;;;5098330;28;20195;-71
2022/04/18 02:40:33;;;;;;;8.38;1.17;;;;;;;;;;5105886;28;20225;-72
2022/04/18 02:43:01;;;;;;;1.77;1.20;;;;;;;;;;5096470;28;20663;-72
2022/04/18 02:45:31;;;;;;;1.33;0.97;;;;;;;;;;5104740;28;20463;-72
2022/04/18 02:47:58;;;;;;;1.08;1.02;;;;;;;;;;5096204;28;20443;-71
2022/04/18 02:50:26;;;;;;;1.50;1.40;;;;;;;;;;5103632;28;20206;-72
2022/04/18 02:52:53;;;;;;;2.13;1.20;;;;;;;;;;5106775;28;20454;-72
2022/04/18 02:55:20;;;;;;;1.00;0.93;;;;;;;;;;5100431;28;20800;-72
2022/04/18 02:57:47;;;;;;;0.80;0.80;;;;;;;;;;5098108;28;20928;-72
2022/04/18 03:00:14;;;;;;;1.00;0.80;;;;;;;;;;5102924;28;20598;-72
2022/04/18 03:02:43;;;;;;;1.43;1.20;;;;;;;;;;5104949;28;20479;-71
2022/04/18 03:05:11;;;;;;;1.43;0.93;;;;;;;;;;5091701;28;20447;-72
2022/04/18 03:07:39;;;;;;;0.80;0.80;;;;;;;;;;5096108;28;20485;-71
2022/04/18 03:10:07;;;;;;;0.90;0.90;;;;;;;;;;5102532;28;20459;-72
2022/04/18 03:12:34;;;;;;;1.10;1.00;;;;;;;;;;5105032;28;20559;-72
2022/04/18 03:15:01;;;;;;;1.07;0.97;;;;;;;;;;5102538;28;20845;-72
2022/04/18 03:17:28;;;;;;;0.63;0.60;;;;;;;;;;5105379;28;20440;-70
2022/04/18 03:19:57;;;;;;;2.00;1.43;;;;;;;;;;5100907;28;20479;-72
2022/04/18 03:22:24;;;;;;;0.87;0.87;;;;;;;;;;5095622;28;20450;-72
2022/04/18 03:24:52;;;;;;;1.57;0.80;;;;;;;;;;5100557;28;20448;-72
2022/04/18 03:27:20;;;;;;;1.00;0.90;;;;;;;;;;5098494;28;20527;-72
2022/04/18 03:29:48;;;;;;;0.73;0.73;;;;;;;;;;5100136;28;20464;-72
2022/04/18 03:32:15;;;;;;;1.25;1.15;;;;;;;;;;5103901;28;20242;-72
2022/04/18 03:34:42;;;;;;;1.80;1.10;;;;;;;;;;5092364;28;20196;-72
2022/04/18 03:39:55;;;;;;;0.90;0.63;;;;;;;;;;5104883;28;20217;-72
2022/04/18 03:42:32;;;;;;;1.77;1.00;;;;;;;;;;5095298;28;20953;-72
2022/04/18 03:45:00;;;;;;;1.50;1.07;;;;;;;;;;5097732;28;20259;-72
2022/04/18 03:47:27;;;;;;;1.00;1.00;;;;;;;;;;5098039;28;20479;-71
2022/04/18 03:49:55;;;;;;;0.50;0.50;;;;;;;;;;5105011;28;20880;-71
2022/04/18 03:52:24;;;;;;;1.20;0.80;;;;;;;;;;5097083;28;20440;-71
2022/04/18 03:54:51;;;;;;;0.98;0.98;;;;;;;;;;5097517;28;20557;-71
2022/04/18 03:57:18;;;;;;;1.13;0.80;;;;;;;;;;5107618;28;20237;-70
2022/04/18 03:59:46;;;;;;;1.60;1.50;;;;;;;;;;5099046;28;20498;-71
2022/04/18 04:02:13;;;;;;;0.67;0.67;;;;;;;;;;5093493;28;20476;-71
2022/04/18 04:04:42;;;;;;;0.88;0.80;;;;;;;;;;5091543;28;20523;-72
2022/04/18 04:07:09;;;;;;;1.30;0.87;;;;;;;;;;5101545;28;20190;-71
2022/04/18 04:09:38;;;;;;;0.70;0.60;;;;;;;;;;5097750;28;20452;-72
2022/04/18 04:12:06;;;;;;;1.00;0.90;;;;;;;;;;5097301;28;20531;-72
2022/04/18 04:14:33;;;;;;;0.87;0.87;;;;;;;;;;5091601;28;20501;-71
2022/04/18 04:17:00;;;;;;;0.97;0.87;;;;;;;;;;5097892;28;20508;-71
2022/04/18 04:19:28;;;;;;;1.10;0.83;;;;;;;;;;5096643;28;20514;-71
2022/04/18 04:21:55;;;;;;;0.85;0.75;;;;;;;;;;5095823;28;20523;-71
2022/04/18 04:24:22;;;;;;;1.13;1.10;;;;;;;;;;5103682;28;20240;-72
2022/04/18 04:26:50;;;;;;;0.87;0.80;;;;;;;;;;5103999;28;20485;-72
2022/04/18 04:29:18;;;;;;;1.03;1.00;;;;;;;;;;5097959;28;20811;-72
2022/04/18 04:31:45;;;;;;;1.40;0.80;;;;;;;;;;5096678;28;20475;-72
2022/04/18 04:34:12;;;;;;;1.93;0.67;;;;;;;;;;5110144;28;20990;-72
2022/04/18 04:36:40;;;;;;;0.93;0.93;;;;;;;;;;5095030;28;20452;-72
2022/04/18 04:39:07;;;;;;;2.10;1.53;;;;;;;;;;5099179;28;20478;-71
2022/04/18 04:41:35;;;;;;;1.07;0.97;;;;;;;;;;5104678;28;20481;-71
2022/04/18 04:44:03;;;;;;;0.77;0.77;;;;;;;;;;5100688;28;20457;-71
2022/04/18 04:46:30;;;;;;;1.53;1.23;;;;;;;;;;5095914;28;20526;-71
2022/04/18 04:48:57;;;;;;;2.13;1.97;;;;;;;;;;5100536;28;20792;-72
2022/04/18 04:51:25;;;;;;;2.10;1.47;;;;;;;;;;5106394;28;20458;-71
2022/04/18 04:56:28;;;;;;;1.40;1.30;;;;;;;;;;5242147;22;20896;-71
2022/04/18 04:58:55;;;;;;;1.30;0.90;;;;;;;;;;5040569;28;20565;-71
2022/04/18 05:01:25;;;;;;;1.27;1.17;;;;;;;;;;5041131;28;20930;-71
2022/04/18 05:03:53;;;;;;;0.70;0.53;;;;;;;;;;5040527;28;20459;-72
2022/04/18 05:06:20;;;;;;;0.97;0.83;;;;;;;;;;5048841;28;20815;-72
2022/04/18 05:08:47;;;;;;;1.00;0.90;;;;;;;;;;5045930;28;20512;-73
2022/04/18 05:11:14;;;;;;;7.23;1.00;;;;;;;;;;5048733;28;20446;-72
2022/04/18 05:13:42;;;;;;;1.47;0.93;;;;;;;;;;5046903;28;20445;-71
2022/04/18 05:16:09;;;;;;;1.47;1.37;;;;;;;;;;5038112;28;20460;-72
2022/04/18 05:18:37;;;;;;;1.10;1.03;;;;;;;;;;5039449;28;20448;-71
2022/04/18 05:21:04;;;;;;;2.30;1.43;;;;;;;;;;5050963;28;20493;-71
2022/04/18 05:23:32;;;;;;;1.00;0.80;;;;;;;;;;5052351;28;20537;-72
2022/04/18 05:25:59;;;;;;;1.20;1.10;;;;;;;;;;5053503;28;20482;-72
2022/04/18 05:28:26;;;;;;;1.17;0.83;;;;;;;;;;5043911;28;20564;-72
2022/04/18 05:30:53;;;;;;;1.07;0.97;;;;;;;;;;5047176;28;20508;-72
2022/04/18 05:33:21;;;;;;;1.27;1.17;;;;;;;;;;5048656;28;20458;-72
2022/04/18 05:35:50;;;;;;;1.70;1.60;;;;;;;;;;5048627;28;20446;-72
2022/04/18 05:38:17;;;;;;;1.03;0.80;;;;;;;;;;5045316;28;20781;-71
2022/04/18 05:40:44;;;;;;;1.23;1.13;;;;;;;;;;5051296;28;20481;-72
2022/04/18 05:43:11;;;;;;;1.60;1.02;;;;;;;;;;5052228;28;20540;-72
2022/04/18 05:45:39;;;;;;;1.37;1.13;;;;;;;;;;5049230;28;20291;-72
2022/04/18 05:48:07;;;;;;;1.10;0.77;;;;;;;;;;5046112;28;20501;-72
2022/04/18 05:50:34;;;;;;;3.57;1.17;;;;;;;;;;5050834;28;20204;-71
2022/04/18 05:53:03;;;;;;;1.67;1.30;;;;;;;;;;5053142;28;20440;-72
2022/04/18 05:55:35;;;;;;;2.90;1.00;;;;;;;;;;5044329;28;20538;-73
2022/04/18 05:58:04;;;;;;;1.13;1.03;;;;;;;;;;5052153;28;20490;-72
2022/04/18 06:00:32;;;;;;;1.77;1.17;;;;;;;;;;5043222;28;20485;-72
2022/04/18 06:02:59;;;;;;;1.97;1.20;;;;;;;;;;5046924;28;20470;-71
2022/04/18 06:05:26;;;;;;;1.50;1.30;;;;;;;;;;5052981;28;21129;-69
2022/04/18 06:07:53;;;;;;;1.77;1.17;;;;;;;;;;5049244;28;20467;-73
2022/04/18 06:10:22;;;;;;;2.57;1.33;;;;;;;;;;5047989;28;20483;-69
2022/04/18 06:12:49;;;;;;;1.13;0.77;;;;;;;;;;5047619;28;20668;-71
2022/04/18 06:15:16;;;;;;;1.60;1.50;;;;;;;;;;5047532;28;20994;-71
2022/04/18 06:17:44;;;;;;;1.00;0.90;;;;;;;;;;5045249;28;21090;-70
2022/04/18 06:20:11;;;;;;;2.00;1.60;;;;;;;;;;5047215;28;20483;-70
2022/04/18 06:22:38;;;;;;;1.77;1.63;;;;;;;;;;5051213;28;20200;-72
2022/04/18 06:25:06;;;;;;;2.00;1.80;;;;;;;;;;5050154;28;20450;-70
2022/04/18 06:27:34;;;;;;;1.73;1.63;;;;;;;;;;5050586;28;20798;-71
2022/04/18 06:30:01;;;;;;;1.40;1.23;;;;;;;;;;5050430;28;20196;-70
2022/04/18 06:32:29;;;;;;;2.83;1.20;;;;;;;;;;5049007;28;20442;-71
2022/04/18 06:34:58;;;;;;;2.10;1.40;;;;;;;;;;5051692;28;20458;-70
2022/04/18 06:37:25;;;;;;;2.20;1.87;;;;;;;;;;5044337;28;20454;-71
2022/04/18 06:39:53;;;;;;;1.53;1.43;;;;;;;;;;5048963;28;20590;-71
2022/04/18 06:42:20;;;;;;;1.53;1.43;;;;;;;;;;5047683;28;20457;-72
2022/04/18 06:44:48;;;;;;;1.50;1.40;;;;;;;;;;5050090;28;20462;-71
2022/04/18 06:47:15;;;;;;;2.27;2.07;;;;;;;;;;5048823;28;20533;-70
2022/04/18 06:49:43;;;;;;;2.80;1.27;;;;;;;;;;5043490;28;20461;-71
2022/04/18 06:52:10;;;;;;;1.87;1.47;;;;;;;;;;5048960;28;20968;-70
2022/04/18 06:54:37;;;;;;;2.10;1.47;;;;;;;;;;5036895;28;20479;-70
2022/04/18 06:57:03;;;;;;;1.00;0.80;;;;;;;;;;5050859;28;20561;-71
2022/04/18 06:59:31;;;;;;;1.67;1.57;;;;;;;;;;5041183;28;20525;-70
2022/04/18 07:02:00;;;;;;;3.38;2.22;;;;;;;;;;5045846;28;20537;-71
2022/04/18 07:04:28;;;;;;;2.97;2.30;;;;;;;;;;5050995;28;20231;-72
2022/04/18 07:06:55;;;;;;;1.67;1.30;;;;;;;;;;5043063;28;20541;-71
2022/04/18 07:09:22;;;;;;;1.20;0.83;;;;;;;;;;5047420;28;20469;-71
2022/04/18 07:11:50;;;;;;;1.20;1.00;;;;;;;;;;5049681;28;20500;-71
2022/04/18 07:14:17;;;;;;;1.37;1.20;;;;;;;;;;5050280;28;20522;-70
2022/04/18 07:16:45;;;;;;;1.60;1.23;;;;;;;;;;5048250;28;20537;-70
2022/04/18 07:19:13;;;;;;;2.10;1.73;;;;;;;;;;5040980;28;20557;-71
2022/04/18 07:21:41;;;;;;;1.67;1.50;;;;;;;;;;5049822;28;20712;-71
2022/04/18 07:24:08;;;;;;;3.95;1.40;;;;;;;;;;5051260;28;20507;-72
2022/04/18 07:26:35;;;;;;;2.23;1.80;;;;;;;;;;5047763;28;20228;-71
2022/04/18 07:29:02;;;;;;;1.93;1.40;;;;;;;;;;5044805;28;20455;-71
2022/04/18 07:31:31;;;;;;;2.37;1.27;;;;;;;;;;5045574;28;20524;-71
2022/04/18 07:33:58;;;;;;;3.80;1.80;;;;;;;;;;5049485;28;20461;-71
2022/04/18 07:36:26;;;;;;;4.50;1.33;;;;;;;;;;5044188;28;20198;-71
2022/04/18 07:38:54;;;;;;;2.50;1.57;;;;;;;;;;5039333;28;20947;-71
2022/04/18 07:41:22;;;;;;;2.10;1.93;;;;;;;;;;5043924;28;21041;-74
2022/04/18 07:43:49;;;;;;;4.27;2.00;;;;;;;;;;5041119;28;20461;-74
2022/04/18 07:46:17;;;;;;;1.90;1.77;;;;;;;;;;5040041;28;20843;-73
2022/04/18 07:48:45;;;;;;;3.53;2.27;;;;;;;;;;5039074;28;20926;-73
2022/04/18 07:53:58;;;;;;;2.33;1.60;;;;;;;;;;5035558;28;20428;-73
2022/04/18 07:56:26;;;;;;;1.40;1.30;;;;;;;;;;5049944;28;20489;-73
2022/04/18 07:58:53;;;;;;;4.75;1.70;;;;;;;;;;5038607;28;20566;-73
2022/04/18 08:01:21;;;;;;;1.50;1.40;;;;;;;;;;5033703;28;20278;-71
2022/04/18 08:03:48;;;;;;;2.10;1.83;;;;;;;;;;5046593;28;20976;-70
2022/04/18 08:06:16;;;;;;;1.37;1.27;;;;;;;;;;5049683;28;20755;-70
2022/04/18 08:08:43;;;;;;;1.20;1.10;;;;;;;;;;5032498;28;20475;-70
2022/04/18 08:11:14;;;;;;;1.73;1.17;;;;;;;;;;5047872;28;20584;-70
2022/04/18 08:13:42;;;;;;;2.07;1.63;;;;;;;;;;5044504;28;20440;-70
2022/04/18 08:16:10;;;;;;;2.53;1.73;;;;;;;;;;5049239;28;20445;-70
2022/04/18 08:18:39;;;;;;;1.30;1.20;;;;;;;;;;5039926;28;20481;-72
2022/04/18 08:21:06;;;;;;;2.33;1.37;;;;;;;;;;5043498;28;20573;-72
2022/04/18 08:23:34;;;;;;;1.97;1.77;;;;;;;;;;5043411;28;20475;-72
2022/04/18 08:26:01;;;;;;;2.03;1.50;;;;;;;;;;5032877;28;20955;-73
2022/04/18 08:28:30;;;;;;;1.70;1.60;;;;;;;;;;5038066;28;20462;-72
2022/04/18 08:30:57;;;;;;;1.80;1.70;;;;;;;;;;5039655;28;20449;-73
2022/04/18 08:33:25;;;;;;;2.05;1.65;;;;;;;;;;5049904;28;20817;-71
2022/04/18 08:35:52;;;;;;;2.25;1.30;;;;;;;;;;5049070;28;20308;-71
2022/04/18 08:38:19;;;;;;;3.43;1.57;;;;;;;;;;5049470;28;20231;-72
2022/04/18 08:40:49;;;;;;;3.33;1.93;;;;;;;;;;5049292;28;20478;-72
2022/04/18 08:43:17;;;;;;;2.67;1.77;;;;;;;;;;5050230;28;20500;-72
2022/04/18 08:45:46;;;;;;;3.13;2.30;;;;;;;;;;5048254;28;20951;-72
2022/04/18 08:53:44;;;;;;;1.53;1.43;;;;;;;;;;5042634;28;20198;-73
2022/04/18 08:56:11;;;;;;;4.07;1.97;;;;;;;;;;5043174;28;20457;-72
2022/04/18 08:58:38;;;;;;;1.37;1.20;;;;;;;;;;5042646;28;21066;-72
2022/04/18 09:01:07;;;;;;;2.30;1.47;;;;;;;;;;5052221;28;20484;-72
2022/04/18 09:03:34;;;;;;;3.80;1.60;;;;;;;;;;5052556;28;20451;-72
2022/04/18 09:06:05;;;;;;;3.33;1.60;;;;;;;;;;5047629;28;20869;-72
2022/04/18 09:08:35;;;;;;;2.37;1.60;;;;;;;;;;5052405;28;20451;-72
2022/04/18 09:11:02;;;;;;;1.50;1.37;;;;;;;;;;5040417;28;20945;-74
2022/04/18 09:13:29;;;;;;;2.03;1.77;;;;;;;;;;5052766;28;20993;-72
2022/04/18 09:15:56;;;;;;;1.67;1.37;;;;;;;;;;5052580;28;20442;-72
2022/04/18 09:18:26;;;;;;;3.33;2.40;;;;;;;;;;5052570;28;20446;-71
2022/04/18 09:20:54;;;;;;;2.50;1.80;;;;;;;;;;5040441;28;20484;-72
2022/04/18 09:23:24;;;;;;;1.40;1.20;;;;;;;;;;5052818;28;20464;-73
2022/04/18 09:25:55;;;;;;;1.63;1.50;;;;;;;;;;5052645;28;20860;-74
2022/04/18 09:28:24;;;;;;;1.60;1.50;;;;;;;;;;5051985;28;20458;-72
2022/04/18 09:30:58;;;;;;;2.60;1.90;;;;;;;;;;5046284;28;20544;-72
2022/04/18 09:33:29;;;;;;;2.00;1.90;;;;;;;;;;5044162;28;20440;-75
2022/04/18 09:36:05;;;;;;;2.43;1.63;;;;;;;;;;5045550;28;20443;-73
2022/04/18 09:38:32;;;;;;;1.73;1.33;;;;;;;;;;5041426;28;20446;-74
2022/04/18 09:40:59;;;;;;;1.77;1.40;;;;;;;;;;5041666;28;20271;-72
2022/04/18 09:43:26;;;;;;;1.57;1.33;;;;;;;;;;5037911;28;20459;-75
2022/04/18 09:45:54;;;;;;;2.80;1.20;;;;;;;;;;5036573;28;20523;-73
2022/04/18 09:48:22;;;;;;;2.10;1.30;;;;;;;;;;5047232;28;20446;-73
2022/04/18 09:51:01;;;;;;;1.80;1.70;;;;;;;;;;5035794;28;20459;-72
2022/04/18 09:53:29;;;;;;;1.70;1.40;;;;;;;;;;5050343;28;20533;-73
2022/04/18 09:55:57;;;;;;;1.60;1.40;;;;;;;;;;5043389;28;20451;-72
2022/04/18 09:58:25;;;;;;;1.10;1.00;;;;;;;;;;5044209;28;20486;-72
2022/04/18 10:00:52;;;;;;;5.33;1.80;;;;;;;;;;5038788;28;20514;-69
2022/04/18 10:03:19;;;;;;;3.22;1.60;;;;;;;;;;5046427;28;20452;-72
2022/04/18 10:05:47;;;;;;;21.00;1.90;;;;;;;;;;5045263;28;20210;-70
2022/04/18 10:08:16;;;;;;;1.57;1.43;;;;;;;;;;5045401;28;20283;-69
2022/04/18 10:10:43;;;;;;;2.10;1.47;;;;;;;;;;5050839;28;20520;-73
2022/04/18 10:13:10;;;;;;;2.87;1.40;;;;;;;;;;5051659;28;20453;-74
2022/04/18 10:15:38;;;;;;;1.60;1.50;;;;;;;;;;5050353;28;20450;-72
2022/04/18 10:18:06;;;;;;;2.30;1.53;;;;;;;;;;5052494;28;20477;-73
2022/04/18 10:20:40;;;;;;;2.00;1.57;;;;;;;;;;5052605;28;20447;-72
2022/04/18 10:23:27;;;;;;;2.03;1.63;;;;;;;;;;5052930;28;20457;-73
2022/04/18 10:26:15;;;;;;;2.20;1.43;;;;;;;;;;5040972;28;20446;-73
2022/04/18 10:28:44;;;;;;;1.93;1.73;;;;;;;;;;5051628;28;20446;-73
2022/04/18 10:31:12;;;;;;;1.93;1.70;;;;;;;;;;5052135;28;20486;-72
2022/04/18 10:33:40;;;;;;;2.13;1.30;;;;;;;;;;5051695;28;20454;-72
2022/04/18 10:36:08;;;;;;;1.97;1.77;;;;;;;;;;5052830;28;20465;-74
2022/04/18 10:38:40;;;;;;;2.30;1.60;;;;;;;;;;5051697;28;20451;-73
2022/04/18 10:41:28;;;;;;;1.97;1.87;;;;;;;;;;5052046;28;20989;-73
2022/04/18 10:44:05;;;;;;;2.30;1.90;;;;;;;;;;5051597;28;20531;-72
2022/04/18 10:46:32;;;;;;;1.53;1.40;;;;;;;;;;5052444;28;20520;-72
2022/04/18 10:49:00;;;;;;;2.17;1.63;;;;;;;;;;5051398;28;20450;-73
2022/04/18 10:51:28;;;;;;;2.97;1.73;;;;;;;;;;5052087;28;20493;-73
2022/04/18 10:54:05;;;;;;;3.77;2.30;;;;;;;;;;5051546;28;20458;-72
2022/04/18 10:56:47;;;;;;;2.33;1.70;;;;;;;;;;5052173;28;20937;-74
2022/04/18 10:59:16;;;;;;;2.37;1.90;;;;;;;;;;5049173;28;20451;-74
2022/04/18 11:01:44;;;;;;;4.30;1.83;;;;;;;;;;5041673;28;20570;-74
2022/04/18 11:04:11;;;;;;;1.70;1.30;;;;;;;;;;5052031;28;20449;-74
2022/04/18 11:06:48;;;;;;;2.43;1.80;;;;;;;;;;5051009;28;20458;-74
2022/04/18 11:09:17;;;;;;;2.38;1.50;;;;;;;;;;5051956;28;20441;-74
2022/04/18 11:11:45;;;;;;;1.93;1.73;;;;;;;;;;5051486;28;20227;-73
2022/04/18 11:14:16;;;;;;;1.73;1.53;;;;;;;;;;5043146;28;20487;-75
2022/04/18 11:16:51;;;;;;;4.50;1.87;;;;;;;;;;5047770;28;20449;-74
2022/04/18 11:19:20;;;;;;;2.40;1.50;;;;;;;;;;5039688;28;20453;-72
2022/04/18 11:22:17;;;;;;;1.63;1.40;;;;;;;;;;5050834;28;20489;-72
2022/04/18 11:24:46;;;;;;;3.50;1.93;;;;;;;;;;4994503;28;20441;-74
2022/04/18 11:27:14;;;;;;;1.17;0.93;;;;;;;;;;5040536;28;20482;-74
2022/04/18 11:29:44;;;;;;;1.63;1.33;;;;;;;;;;5050218;28;20958;-72
2022/04/18 11:32:15;;;;;;;2.20;1.67;;;;;;;;;;5050985;28;20458;-72
2022/04/18 11:34:44;;;;;;;3.00;2.33;;;;;;;;;;5050841;28;20533;-74
2022/04/18 11:37:13;;;;;;;4.60;2.10;;;;;;;;;;5050956;28;20508;-73
2022/04/18 11:39:44;;;;;;;1.73;1.50;;;;;;;;;;5046007;28;20458;-71
2022/04/18 11:42:15;;;;;;;2.00;1.80;;;;;;;;;;5050808;28;20485;-71
2022/04/18 11:44:44;;;;;;;1.60;1.50;;;;;;;;;;5050592;28;20461;-74
2022/04/18 11:47:12;;;;;;;1.97;1.57;;;;;;;;;;5050921;28;20450;-73
2022/04/18 11:49:40;;;;;;;3.17;2.30;;;;;;;;;;5050234;28;20445;-74
2022/04/18 11:52:08;;;;;;;1.90;1.47;;;;;;;;;;5050852;28;20454;-74
2022/04/18 11:54:35;;;;;;;1.70;1.60;;;;;;;;;;5051045;28;20926;-73
2022/04/18 11:57:03;;;;;;;1.87;1.50;;;;;;;;;;5049890;28;20238;-73
2022/04/18 11:59:30;;;;;;;1.57;1.07;;;;;;;;;;5045697;28;20530;-74
2022/04/18 12:07:34;;;;;;;4.47;1.50;;;;;;;;;;5050532;28;20468;-74
2022/04/18 12:10:01;;;;;;;1.20;1.10;;;;;;;;;;5050603;28;20253;-74
2022/04/18 12:12:29;;;;;;;1.27;1.17;;;;;;;;;;5050652;28;20620;-74
2022/04/18 12:15:01;;;;;;;2.07;1.63;;;;;;;;;;5049872;28;20755;-74
2022/04/18 12:17:30;;;;;;;2.40;1.33;;;;;;;;;;5050488;28;20446;-74
2022/04/18 12:19:57;;;;;;;3.20;1.63;;;;;;;;;;5049845;28;20462;-74
2022/04/18 12:22:25;;;;;;;1.83;1.40;;;;;;;;;;5050764;28;20482;-74
2022/04/18 12:24:52;;;;;;;1.97;1.60;;;;;;;;;;5050014;28;20585;-74
2022/04/18 12:27:37;;;;;;;1.10;1.00;;;;;;;;;;5049409;28;20509;-74
2022/04/18 12:30:05;;;;;;;1.50;1.27;;;;;;;;;;5050707;28;20481;-74
2022/04/18 12:32:38;;;;;;;2.07;1.83;;;;;;;;;;5051004;28;20617;-74
2022/04/18 12:35:06;;;;;;;1.73;1.63;;;;;;;;;;5050581;28;20454;-74
2022/04/18 12:37:33;;;;;;;1.80;1.40;;;;;;;;;;5049869;28;20446;-73
2022/04/18 12:40:13;;;;;;;2.33;1.33;;;;;;;;;;5049402;28;20929;-74
2022/04/18 12:42:41;;;;;;;2.40;1.30;;;;;;;;;;5049848;28;20581;-75
2022/04/18 12:45:08;;;;;;;1.70;1.50;;;;;;;;;;5050545;28;20555;-75
2022/04/18 12:47:39;;;;;;;2.30;1.13;;;;;;;;;;5050190;28;20485;-75
2022/04/18 12:50:07;;;;;;;2.80;1.90;;;;;;;;;;5050821;28;20442;-74
2022/04/18 12:52:35;;;;;;;1.88;1.17;;;;;;;;;;5050560;28;20538;-74
2022/04/18 12:55:06;;;;;;;1.93;1.50;;;;;;;;;;5050482;28;20200;-74
2022/04/18 12:57:34;;;;;;;1.97;1.30;;;;;;;;;;5050100;28;20534;-74
2022/04/18 13:00:15;;;;;;;1.87;1.23;;;;;;;;;;5040529;28;20455;-75
2022/04/18 13:02:57;;;;;;;3.43;1.93;;;;;;;;;;5047961;28;20478;-75
2022/04/18 13:05:25;;;;;;;1.70;1.20;;;;;;;;;;5050408;28;20450;-75
2022/04/18 13:07:52;;;;;;;2.30;1.40;;;;;;;;;;5049392;28;20823;-75
2022/04/18 13:10:27;;;;;;;1.30;1.20;;;;;;;;;;5050293;28;20810;-74
2022/04/18 13:12:59;;;;;;;1.77;1.30;;;;;;;;;;5049793;28;20877;-74
2022/04/18 13:15:27;;;;;;;3.33;2.80;;;;;;;;;;5050124;28;20450;-75
2022/04/18 13:17:59;;;;;;;1.77;1.00;;;;;;;;;;5049352;28;20446;-75
2022/04/18 13:20:26;;;;;;;1.23;1.07;;;;;;;;;;5049865;28;20551;-75
2022/04/18 13:22:54;;;;;;;2.80;1.90;;;;;;;;;;5049015;28;20581;-75
2022/04/18 13:25:21;;;;;;;2.50;1.40;;;;;;;;;;5050394;28;20942;-74
2022/04/18 13:27:48;;;;;;;1.53;1.20;;;;;;;;;;5049019;28;20453;-74
2022/04/18 13:30:15;;;;;;;2.30;1.60;;;;;;;;;;5049525;28;20525;-74
2022/04/18 13:32:42;;;;;;;1.73;1.40;;;;;;;;;;5049723;28;20447;-74
2022/04/18 13:35:11;;;;;;;6.13;2.17;;;;;;;;;;5049670;28;20957;-75
2022/04/18 13:37:38;;;;;;;1.70;1.40;;;;;;;;;;5048912;28;20814;-74
2022/04/18 13:40:06;;;;;;;1.87;1.20;;;;;;;;;;5038390;28;20542;-74
2022/04/18 13:42:34;;;;;;;3.17;1.60;;;;;;;;;;5053558;28;20488;-74
2022/04/18 13:45:01;;;;;;;1.90;1.70;;;;;;;;;;5052793;28;20884;-74
2022/04/18 13:47:29;;;;;;;1.80;1.47;;;;;;;;;;5052862;28;20457;-74
2022/04/18 13:49:58;;;;;;;2.13;1.40;;;;;;;;;;5053036;28;20538;-74
2022/04/18 13:52:26;;;;;;;2.63;1.23;;;;;;;;;;5053537;28;20454;-74
2022/04/18 13:54:54;;;;;;;1.53;1.20;;;;;;;;;;5052896;28;20200;-74
2022/04/18 13:57:21;;;;;;;2.80;1.70;;;;;;;;;;5052350;28;20565;-74
2022/04/18 13:59:48;;;;;;;1.97;1.10;;;;;;;;;;5044622;28;20517;-73
2022/04/18 14:02:16;;;;;;;1.27;1.00;;;;;;;;;;5047224;28;20512;-73
2022/04/18 14:04:43;;;;;;;1.40;1.30;;;;;;;;;;5052545;28;20450;-74
2022/04/18 14:07:10;;;;;;;2.20;1.20;;;;;;;;;;5052745;28;20454;-74
2022/04/18 14:09:39;;;;;;;1.30;1.20;;;;;;;;;;5052506;28;20454;-73
2022/04/18 14:12:07;;;;;;;3.10;1.73;;;;;;;;;;5053268;28;20458;-75
2022/04/18 14:20:23;;;;;;;1.40;1.30;;;;;;;;;;5053066;28;20453;-74
2022/04/18 14:22:51;;;;;;;1.30;1.20;;;;;;;;;;5052474;28;20485;-74
2022/04/18 14:25:19;;;;;;;1.73;1.17;;;;;;;;;;5052944;28;20442;-74
2022/04/18 14:27:47;;;;;;;1.87;1.50;;;;;;;;;;5052002;28;20904;-74
2022/04/18 14:30:14;;;;;;;1.57;1.20;;;;;;;;;;5052641;28;20442;-74
2022/04/18 14:32:42;;;;;;;2.03;1.70;;;;;;;;;;5052281;28;20451;-74
2022/04/18 14:35:10;;;;;;;1.93;1.23;;;;;;;;;;5052355;28;20478;-74
2022/04/18 14:37:38;;;;;;;1.90;1.20;;;;;;;;;;5051845;28;20496;-74
2022/04/18 14:40:07;;;;;;;1.80;1.43;;;;;;;;;;5052717;28;20451;-74
2022/04/18 14:42:35;;;;;;;2.07;1.20;;;;;;;;;;5051422;28;20548;-73
2022/04/18 14:45:03;;;;;;;1.60;1.30;;;;;;;;;;5051697;28;20479;-74
2022/04/18 14:47:30;;;;;;;2.30;1.60;;;;;;;;;;5051555;28;20529;-75
2022/04/18 14:49:58;;;;;;;0.93;0.90;;;;;;;;;;5051899;28;20435;-75
2022/04/18 14:52:25;;;;;;;1.30;1.20;;;;;;;;;;5052359;28;20520;-75
2022/04/18 14:54:52;;;;;;;1.73;1.40;;;;;;;;;;5051932;28;20537;-75
2022/04/18 14:57:19;;;;;;;1.80;1.30;;;;;;;;;;5051323;28;20884;-75
2022/04/18 14:59:48;;;;;;;2.63;1.40;;;;;;;;;;5043991;28;20435;-75
2022/04/18 15:02:16;;;;;;;1.20;1.10;;;;;;;;;;5046417;28;20525;-75
2022/04/18 15:04:43;;;;;;;1.87;1.30;;;;;;;;;;5051517;28;20448;-74
2022/04/18 15:07:11;;;;;;;1.92;1.27;;;;;;;;;;5051509;28;20954;-74
2022/04/18 15:09:38;;;;;;;2.13;1.60;;;;;;;;;;5051548;28;20249;-75
2022/04/18 15:12:07;;;;;;;1.30;1.10;;;;;;;;;;5052137;28;20993;-74
2022/04/18 15:14:34;;;;;;;1.37;1.27;;;;;;;;;;5052151;28;20442;-74
2022/04/18 15:17:03;;;;;;;1.43;1.30;;;;;;;;;;5050755;28;20484;-74